sensor_id;sensor_type;location;lat;lon;timestamp;temperature;humidity
13482;DHT22;6813;60.352;15.746;2022-09-09T00:00:25;11.10;99.90
13482;DHT22;6813;60.352;15.746;2022-09-09T00:03:01;11.10;99.90
13482;DHT22;6813;60.352;15.746;2022-09-09T00:08:27;11.30;99.90
13482;DHT22;6813;60.352;15.746;2022-09-09T00:11:04;11.40;99.90
13482;DHT22;6813;60.352;15.746;2022-09-09T00:13:42;11.40;99.90
13482;DHT22;6813;60.352;15.746;2022-09-09T00:24:53;11.30;99.90
13482;DHT22;6813;60.352;15.746;2022-09-09T00:30:18;11.20;99.90
13482;DHT22;6813;60.352;15.746;2022-09-09T00:32:50;11.20;99.90
13482;DHT22;6813;60.352;15.746;2022-09-09T00:35:34;11.20;99.90
13482;DHT22;6813;60.352;15.746;2022-09-09T00:38:12;11.20;99.90
13482;DHT22;6813;60.352;15.746;2022-09-09T00:43:40;11.30;99.90
13482;DHT22;6813;60.352;15.746;2022-09-09T00:57:32;11.30;99.90
13482;DHT22;6813;60.352;15.746;2022-09-09T01:06:36;11.00;99.90
13482;DHT22;6813;60.352;15.746;2022-09-09T01:08:39;10.80;99.90
13482;DHT22;6813;60.352;15.746;2022-09-09T01:11:15;10.80;99.90
13482;DHT22;6813;60.352;15.746;2022-09-09T01:13:45;10.90;99.90
13482;DHT22;6813;60.352;15.746;2022-09-09T01:16:15;11.10;99.90
13482;DHT22;6813;60.352;15.746;2022-09-09T01:18:48;11.10;99.90
13482;DHT22;6813;60.352;15.746;2022-09-09T01:27:02;11.20;99.90
13482;DHT22;6813;60.352;15.746;2022-09-09T01:29:29;11.30;99.90
13482;DHT22;6813;60.352;15.746;2022-09-09T01:32:01;11.30;99.90
13482;DHT22;6813;60.352;15.746;2022-09-09T01:34:31;11.30;99.90
13482;DHT22;6813;60.352;15.746;2022-09-09T01:37:09;11.30;99.90
13482;DHT22;6813;60.352;15.746;2022-09-09T01:39:37;11.30;99.90
13482;DHT22;6813;60.352;15.746;2022-09-09T01:42:06;11.40;99.90
13482;DHT22;6813;60.352;15.746;2022-09-09T01:44:34;11.40;99.90
13482;DHT22;6813;60.352;15.746;2022-09-09T01:47:02;11.40;99.90
13482;DHT22;6813;60.352;15.746;2022-09-09T01:49:27;11.40;99.90
13482;DHT22;6813;60.352;15.746;2022-09-09T01:51:55;11.40;99.90
13482;DHT22;6813;60.352;15.746;2022-09-09T01:54:26;11.30;99.90
13482;DHT22;6813;60.352;15.746;2022-09-09T02:02:19;11.30;99.90
13482;DHT22;6813;60.352;15.746;2022-09-09T02:07:50;11.20;99.90
13482;DHT22;6813;60.352;15.746;2022-09-09T02:10:24;11.30;99.90
13482;DHT22;6813;60.352;15.746;2022-09-09T02:12:59;11.30;99.90
13482;DHT22;6813;60.352;15.746;2022-09-09T02:15:36;11.30;99.90
13482;DHT22;6813;60.352;15.746;2022-09-09T02:18:07;11.30;99.90
13482;DHT22;6813;60.352;15.746;2022-09-09T02:20:37;11.30;99.90
13482;DHT22;6813;60.352;15.746;2022-09-09T02:23:07;11.40;99.90
13482;DHT22;6813;60.352;15.746;2022-09-09T02:25:35;11.40;99.90
13482;DHT22;6813;60.352;15.746;2022-09-09T02:28:03;11.40;99.90
13482;DHT22;6813;60.352;15.746;2022-09-09T02:30:31;11.50;99.90
13482;DHT22;6813;60.352;15.746;2022-09-09T02:32:58;11.50;99.90
13482;DHT22;6813;60.352;15.746;2022-09-09T02:35:25;11.50;99.90
13482;DHT22;6813;60.352;15.746;2022-09-09T02:37:56;11.50;99.90
13482;DHT22;6813;60.352;15.746;2022-09-09T02:40:24;11.50;99.90
13482;DHT22;6813;60.352;15.746;2022-09-09T02:42:50;11.40;99.90
13482;DHT22;6813;60.352;15.746;2022-09-09T02:45:19;11.50;99.90
13482;DHT22;6813;60.352;15.746;2022-09-09T02:58:02;11.50;99.90
13482;DHT22;6813;60.352;15.746;2022-09-09T03:00:31;11.40;99.90
13482;DHT22;6813;60.352;15.746;2022-09-09T03:02:58;11.20;99.90
13482;DHT22;6813;60.352;15.746;2022-09-09T03:05:24;11.00;99.90
13482;DHT22;6813;60.352;15.746;2022-09-09T03:07:51;11.10;99.90
13482;DHT22;6813;60.352;15.746;2022-09-09T03:10:17;11.00;99.90
13482;DHT22;6813;60.352;15.746;2022-09-09T03:12:43;11.10;99.90
13482;DHT22;6813;60.352;15.746;2022-09-09T03:15:09;11.00;99.90
13482;DHT22;6813;60.352;15.746;2022-09-09T03:17:35;11.10;99.90
13482;DHT22;6813;60.352;15.746;2022-09-09T03:20:03;11.10;99.90
13482;DHT22;6813;60.352;15.746;2022-09-09T03:22:29;11.20;99.90
13482;DHT22;6813;60.352;15.746;2022-09-09T03:24:55;11.20;99.90
13482;DHT22;6813;60.352;15.746;2022-09-09T03:27:21;11.30;99.90
13482;DHT22;6813;60.352;15.746;2022-09-09T03:29:46;11.20;99.90
13482;DHT22;6813;60.352;15.746;2022-09-09T03:32:13;11.20;99.90
13482;DHT22;6813;60.352;15.746;2022-09-09T03:34:38;11.20;99.90
13482;DHT22;6813;60.352;15.746;2022-09-09T03:37:07;11.20;99.90
13482;DHT22;6813;60.352;15.746;2022-09-09T03:39:33;11.20;99.90
13482;DHT22;6813;60.352;15.746;2022-09-09T03:41:58;11.20;99.90
13482;DHT22;6813;60.352;15.746;2022-09-09T03:44:24;11.20;99.90
13482;DHT22;6813;60.352;15.746;2022-09-09T03:46:51;11.20;99.90
13482;DHT22;6813;60.352;15.746;2022-09-09T03:49:16;11.20;99.90
13482;DHT22;6813;60.352;15.746;2022-09-09T03:51:43;11.10;99.90
13482;DHT22;6813;60.352;15.746;2022-09-09T03:54:08;11.00;99.90
13482;DHT22;6813;60.352;15.746;2022-09-09T03:56:36;10.90;99.90
13482;DHT22;6813;60.352;15.746;2022-09-09T03:59:03;10.90;99.90
13482;DHT22;6813;60.352;15.746;2022-09-09T04:01:29;10.90;99.90
13482;DHT22;6813;60.352;15.746;2022-09-09T04:03:55;10.90;99.90
13482;DHT22;6813;60.352;15.746;2022-09-09T04:06:24;10.80;99.90
13482;DHT22;6813;60.352;15.746;2022-09-09T04:08:50;10.70;99.90
13482;DHT22;6813;60.352;15.746;2022-09-09T04:11:17;10.70;99.90
13482;DHT22;6813;60.352;15.746;2022-09-09T04:13:43;10.70;99.90
13482;DHT22;6813;60.352;15.746;2022-09-09T04:16:11;10.60;99.90
13482;DHT22;6813;60.352;15.746;2022-09-09T04:18:38;10.50;99.90
13482;DHT22;6813;60.352;15.746;2022-09-09T04:21:04;10.50;99.90
13482;DHT22;6813;60.352;15.746;2022-09-09T04:23:32;10.50;99.90
13482;DHT22;6813;60.352;15.746;2022-09-09T04:26:01;10.50;99.90
13482;DHT22;6813;60.352;15.746;2022-09-09T04:28:30;10.50;99.90
13482;DHT22;6813;60.352;15.746;2022-09-09T04:30:57;10.40;99.90
13482;DHT22;6813;60.352;15.746;2022-09-09T04:33:28;10.20;99.90
13482;DHT22;6813;60.352;15.746;2022-09-09T04:35:55;10.20;99.90
13482;DHT22;6813;60.352;15.746;2022-09-09T04:38:21;10.20;99.90
13482;DHT22;6813;60.352;15.746;2022-09-09T04:40:49;10.30;99.90
13482;DHT22;6813;60.352;15.746;2022-09-09T04:43:17;10.40;99.90
13482;DHT22;6813;60.352;15.746;2022-09-09T04:45:47;10.40;99.90
13482;DHT22;6813;60.352;15.746;2022-09-09T04:48:14;10.40;99.90
13482;DHT22;6813;60.352;15.746;2022-09-09T04:50:41;10.30;99.90
13482;DHT22;6813;60.352;15.746;2022-09-09T04:53:07;10.20;99.90
13482;DHT22;6813;60.352;15.746;2022-09-09T04:55:34;10.20;99.90
13482;DHT22;6813;60.352;15.746;2022-09-09T04:58:08;10.30;99.90
13482;DHT22;6813;60.352;15.746;2022-09-09T05:00:37;10.30;99.90
13482;DHT22;6813;60.352;15.746;2022-09-09T05:03:05;10.40;99.90
13482;DHT22;6813;60.352;15.746;2022-09-09T05:05:31;10.50;99.90
13482;DHT22;6813;60.352;15.746;2022-09-09T05:08:03;10.50;99.90
13482;DHT22;6813;60.352;15.746;2022-09-09T05:10:30;10.70;99.90
13482;DHT22;6813;60.352;15.746;2022-09-09T05:12:57;10.70;99.90
13482;DHT22;6813;60.352;15.746;2022-09-09T05:15:23;10.80;99.90
13482;DHT22;6813;60.352;15.746;2022-09-09T05:17:49;10.90;99.90
13482;DHT22;6813;60.352;15.746;2022-09-09T05:20:15;10.90;99.90
13482;DHT22;6813;60.352;15.746;2022-09-09T05:22:40;10.90;99.90
13482;DHT22;6813;60.352;15.746;2022-09-09T05:25:06;10.90;99.90
13482;DHT22;6813;60.352;15.746;2022-09-09T05:27:34;10.70;99.90
13482;DHT22;6813;60.352;15.746;2022-09-09T05:30:00;10.50;99.90
13482;DHT22;6813;60.352;15.746;2022-09-09T05:32:26;10.50;99.90
13482;DHT22;6813;60.352;15.746;2022-09-09T05:34:51;10.50;99.90
13482;DHT22;6813;60.352;15.746;2022-09-09T05:37:18;10.70;99.90
13482;DHT22;6813;60.352;15.746;2022-09-09T05:39:43;10.70;99.90
13482;DHT22;6813;60.352;15.746;2022-09-09T05:42:09;10.80;99.90
13482;DHT22;6813;60.352;15.746;2022-09-09T05:44:35;10.80;99.90
13482;DHT22;6813;60.352;15.746;2022-09-09T05:47:04;10.80;99.90
13482;DHT22;6813;60.352;15.746;2022-09-09T05:49:29;10.90;99.90
13482;DHT22;6813;60.352;15.746;2022-09-09T05:51:55;11.00;99.90
13482;DHT22;6813;60.352;15.746;2022-09-09T05:54:21;11.00;99.90
13482;DHT22;6813;60.352;15.746;2022-09-09T05:56:48;11.10;99.90
13482;DHT22;6813;60.352;15.746;2022-09-09T05:59:16;11.20;99.90
13482;DHT22;6813;60.352;15.746;2022-09-09T06:01:41;11.30;99.90
13482;DHT22;6813;60.352;15.746;2022-09-09T06:04:07;11.30;99.90
13482;DHT22;6813;60.352;15.746;2022-09-09T06:06:35;11.30;99.90
13482;DHT22;6813;60.352;15.746;2022-09-09T06:09:07;11.30;99.90
13482;DHT22;6813;60.352;15.746;2022-09-09T06:11:36;11.40;99.90
13482;DHT22;6813;60.352;15.746;2022-09-09T06:14:03;11.40;99.90
13482;DHT22;6813;60.352;15.746;2022-09-09T06:16:31;11.40;99.90
13482;DHT22;6813;60.352;15.746;2022-09-09T06:19:01;11.50;99.90
13482;DHT22;6813;60.352;15.746;2022-09-09T06:21:31;11.50;99.90
13482;DHT22;6813;60.352;15.746;2022-09-09T06:23:58;11.50;99.90
13482;DHT22;6813;60.352;15.746;2022-09-09T06:26:35;11.50;99.90
13482;DHT22;6813;60.352;15.746;2022-09-09T06:29:02;11.40;99.90
13482;DHT22;6813;60.352;15.746;2022-09-09T06:31:30;11.40;99.90
13482;DHT22;6813;60.352;15.746;2022-09-09T06:33:58;11.40;99.90
13482;DHT22;6813;60.352;15.746;2022-09-09T06:36:32;11.40;99.90
13482;DHT22;6813;60.352;15.746;2022-09-09T06:39:00;11.50;99.90
13482;DHT22;6813;60.352;15.746;2022-09-09T06:41:30;11.60;99.90
13482;DHT22;6813;60.352;15.746;2022-09-09T06:43:57;11.50;99.90
13482;DHT22;6813;60.352;15.746;2022-09-09T06:46:25;11.60;99.90
13482;DHT22;6813;60.352;15.746;2022-09-09T06:48:54;11.60;99.90
13482;DHT22;6813;60.352;15.746;2022-09-09T06:51:22;11.60;99.90
13482;DHT22;6813;60.352;15.746;2022-09-09T06:53:51;11.60;99.90
13482;DHT22;6813;60.352;15.746;2022-09-09T06:56:37;11.60;99.90
13482;DHT22;6813;60.352;15.746;2022-09-09T06:59:07;11.60;99.90
13482;DHT22;6813;60.352;15.746;2022-09-09T07:01:38;11.80;99.90
13482;DHT22;6813;60.352;15.746;2022-09-09T07:04:06;11.90;99.90
13482;DHT22;6813;60.352;15.746;2022-09-09T07:06:36;11.90;99.90
13482;DHT22;6813;60.352;15.746;2022-09-09T07:09:04;11.90;99.90
13482;DHT22;6813;60.352;15.746;2022-09-09T07:11:33;11.90;99.90
13482;DHT22;6813;60.352;15.746;2022-09-09T07:14:00;12.00;99.90
13482;DHT22;6813;60.352;15.746;2022-09-09T07:16:27;12.10;99.90
13482;DHT22;6813;60.352;15.746;2022-09-09T07:18:54;12.10;99.90
13482;DHT22;6813;60.352;15.746;2022-09-09T07:21:25;12.20;99.90
13482;DHT22;6813;60.352;15.746;2022-09-09T07:23:52;12.20;99.90
13482;DHT22;6813;60.352;15.746;2022-09-09T07:26:19;12.10;99.90
13482;DHT22;6813;60.352;15.746;2022-09-09T07:28:46;12.10;99.90
13482;DHT22;6813;60.352;15.746;2022-09-09T07:31:20;12.20;99.90
13482;DHT22;6813;60.352;15.746;2022-09-09T07:33:47;12.20;99.90
13482;DHT22;6813;60.352;15.746;2022-09-09T07:36:19;12.40;99.90
13482;DHT22;6813;60.352;15.746;2022-09-09T07:38:56;12.50;99.90
13482;DHT22;6813;60.352;15.746;2022-09-09T07:41:26;12.40;99.90
13482;DHT22;6813;60.352;15.746;2022-09-09T07:43:53;12.50;99.90
13482;DHT22;6813;60.352;15.746;2022-09-09T07:46:24;12.40;99.90
13482;DHT22;6813;60.352;15.746;2022-09-09T07:48:54;12.40;99.90
13482;DHT22;6813;60.352;15.746;2022-09-09T07:51:27;12.40;99.90
13482;DHT22;6813;60.352;15.746;2022-09-09T07:53:55;12.50;99.90
13482;DHT22;6813;60.352;15.746;2022-09-09T07:56:24;12.60;99.90
13482;DHT22;6813;60.352;15.746;2022-09-09T07:58:53;12.70;99.90
13482;DHT22;6813;60.352;15.746;2022-09-09T08:03:59;12.80;99.90
13482;DHT22;6813;60.352;15.746;2022-09-09T08:06:28;12.80;99.90
13482;DHT22;6813;60.352;15.746;2022-09-09T08:08:55;12.90;99.90
13482;DHT22;6813;60.352;15.746;2022-09-09T08:11:23;12.90;99.90
13482;DHT22;6813;60.352;15.746;2022-09-09T08:13:50;12.90;99.90
13482;DHT22;6813;60.352;15.746;2022-09-09T08:16:22;13.00;99.90
13482;DHT22;6813;60.352;15.746;2022-09-09T08:18:52;13.10;99.90
13482;DHT22;6813;60.352;15.746;2022-09-09T08:21:22;13.10;99.90
13482;DHT22;6813;60.352;15.746;2022-09-09T08:23:52;13.20;99.90
13482;DHT22;6813;60.352;15.746;2022-09-09T08:26:21;13.20;99.90
13482;DHT22;6813;60.352;15.746;2022-09-09T08:28:51;13.20;99.90
13482;DHT22;6813;60.352;15.746;2022-09-09T08:31:22;13.30;99.90
13482;DHT22;6813;60.352;15.746;2022-09-09T08:33:48;13.40;99.90
13482;DHT22;6813;60.352;15.746;2022-09-09T08:36:15;13.50;99.90
13482;DHT22;6813;60.352;15.746;2022-09-09T08:38:42;13.60;99.90
13482;DHT22;6813;60.352;15.746;2022-09-09T08:43:42;13.80;99.90
13482;DHT22;6813;60.352;15.746;2022-09-09T08:48:58;14.40;99.90
13482;DHT22;6813;60.352;15.746;2022-09-09T08:51:32;14.70;99.90
13482;DHT22;6813;60.352;15.746;2022-09-09T08:54:00;15.10;99.90
13482;DHT22;6813;60.352;15.746;2022-09-09T08:56:28;15.50;99.90
13482;DHT22;6813;60.352;15.746;2022-09-09T08:58:56;15.90;99.90
13482;DHT22;6813;60.352;15.746;2022-09-09T09:11:53;17.10;99.70
13482;DHT22;6813;60.352;15.746;2022-09-09T09:14:24;16.60;99.20
13482;DHT22;6813;60.352;15.746;2022-09-09T09:16:54;16.60;98.60
13482;DHT22;6813;60.352;15.746;2022-09-09T09:19:22;16.20;99.70
13482;DHT22;6813;60.352;15.746;2022-09-09T09:30:22;16.40;98.80
13482;DHT22;6813;60.352;15.746;2022-09-09T09:32:54;16.20;98.80
13482;DHT22;6813;60.352;15.746;2022-09-09T09:35:20;16.20;99.50
13482;DHT22;6813;60.352;15.746;2022-09-09T09:37:47;15.90;98.90
13482;DHT22;6813;60.352;15.746;2022-09-09T09:40:16;15.80;99.20
13482;DHT22;6813;60.352;15.746;2022-09-09T09:43:00;15.70;99.70
13482;DHT22;6813;60.352;15.746;2022-09-09T09:45:42;15.70;99.90
13482;DHT22;6813;60.352;15.746;2022-09-09T09:48:13;15.60;99.90
13482;DHT22;6813;60.352;15.746;2022-09-09T09:53:34;15.50;99.90
13482;DHT22;6813;60.352;15.746;2022-09-09T09:56:11;15.50;99.90
13482;DHT22;6813;60.352;15.746;2022-09-09T10:01:22;15.50;99.90
13482;DHT22;6813;60.352;15.746;2022-09-09T10:03:55;15.50;99.90
13482;DHT22;6813;60.352;15.746;2022-09-09T10:06:36;15.60;99.90
13482;DHT22;6813;60.352;15.746;2022-09-09T10:09:17;15.80;99.90
13482;DHT22;6813;60.352;15.746;2022-09-09T10:20:19;15.20;99.90
13482;DHT22;6813;60.352;15.746;2022-09-09T10:22:51;15.10;99.90
13482;DHT22;6813;60.352;15.746;2022-09-09T10:25:32;15.20;99.90
13482;DHT22;6813;60.352;15.746;2022-09-09T10:28:10;15.30;99.90
13482;DHT22;6813;60.352;15.746;2022-09-09T10:31:09;15.30;99.90
13482;DHT22;6813;60.352;15.746;2022-09-09T10:33:56;15.20;99.90
13482;DHT22;6813;60.352;15.746;2022-09-09T10:36:25;15.10;99.60
13482;DHT22;6813;60.352;15.746;2022-09-09T10:39:18;15.00;99.80
13482;DHT22;6813;60.352;15.746;2022-09-09T10:42:04;15.00;99.90
13482;DHT22;6813;60.352;15.746;2022-09-09T10:47:23;15.40;99.90
13482;DHT22;6813;60.352;15.746;2022-09-09T10:55:42;16.20;99.80
13482;DHT22;6813;60.352;15.746;2022-09-09T10:58:30;16.20;98.80
13482;DHT22;6813;60.352;15.746;2022-09-09T11:01:03;16.00;98.50
13482;DHT22;6813;60.352;15.746;2022-09-09T11:03:36;15.90;98.30
13482;DHT22;6813;60.352;15.746;2022-09-09T11:06:09;16.10;99.10
13482;DHT22;6813;60.352;15.746;2022-09-09T11:08:39;16.30;98.20
13482;DHT22;6813;60.352;15.746;2022-09-09T11:11:12;16.40;99.10
13482;DHT22;6813;60.352;15.746;2022-09-09T11:16:42;16.00;98.70
13482;DHT22;6813;60.352;15.746;2022-09-09T11:19:30;15.90;98.30
13482;DHT22;6813;60.352;15.746;2022-09-09T11:24:55;15.80;98.90
13482;DHT22;6813;60.352;15.746;2022-09-09T11:27:41;15.90;99.00
13482;DHT22;6813;60.352;15.746;2022-09-09T11:30:20;16.00;99.60
13482;DHT22;6813;60.352;15.746;2022-09-09T11:41:05;16.20;97.90
13482;DHT22;6813;60.352;15.746;2022-09-09T11:43:39;16.30;97.90
13482;DHT22;6813;60.352;15.746;2022-09-09T11:46:06;16.10;98.10
13482;DHT22;6813;60.352;15.746;2022-09-09T11:48:57;15.90;98.00
13482;DHT22;6813;60.352;15.746;2022-09-09T11:51:27;15.60;97.80
13482;DHT22;6813;60.352;15.746;2022-09-09T11:56:45;15.30;98.60
13482;DHT22;6813;60.352;15.746;2022-09-09T11:59:23;15.30;98.30
13482;DHT22;6813;60.352;15.746;2022-09-09T12:02:18;15.40;98.70
13482;DHT22;6813;60.352;15.746;2022-09-09T12:07:57;15.50;99.00
13482;DHT22;6813;60.352;15.746;2022-09-09T12:12:53;15.30;98.10
13482;DHT22;6813;60.352;15.746;2022-09-09T12:15:22;15.30;98.30
13482;DHT22;6813;60.352;15.746;2022-09-09T12:17:50;15.30;98.30
13482;DHT22;6813;60.352;15.746;2022-09-09T12:20:37;15.30;98.60
13482;DHT22;6813;60.352;15.746;2022-09-09T12:28:17;15.70;97.20
13482;DHT22;6813;60.352;15.746;2022-09-09T12:33:13;15.80;97.70
13482;DHT22;6813;60.352;15.746;2022-09-09T12:35:44;15.70;97.90
13482;DHT22;6813;60.352;15.746;2022-09-09T12:40:57;15.60;98.30
13482;DHT22;6813;60.352;15.746;2022-09-09T12:43:25;15.40;98.20
13482;DHT22;6813;60.352;15.746;2022-09-09T12:45:54;15.40;98.60
13482;DHT22;6813;60.352;15.746;2022-09-09T12:48:29;15.40;98.70
13482;DHT22;6813;60.352;15.746;2022-09-09T12:50:56;15.40;98.20
13482;DHT22;6813;60.352;15.746;2022-09-09T12:53:24;15.40;98.30
13482;DHT22;6813;60.352;15.746;2022-09-09T12:58:28;15.60;97.20
13482;DHT22;6813;60.352;15.746;2022-09-09T13:00:58;15.70;96.60
13482;DHT22;6813;60.352;15.746;2022-09-09T13:03:25;15.80;96.50
13482;DHT22;6813;60.352;15.746;2022-09-09T13:05:53;15.80;95.60
13482;DHT22;6813;60.352;15.746;2022-09-09T13:08:20;15.80;95.90
13482;DHT22;6813;60.352;15.746;2022-09-09T13:13:33;15.80;96.20
13482;DHT22;6813;60.352;15.746;2022-09-09T13:16:01;15.80;95.20
13482;DHT22;6813;60.352;15.746;2022-09-09T13:18:32;15.60;95.70
13482;DHT22;6813;60.352;15.746;2022-09-09T13:20:59;15.60;94.60
13482;DHT22;6813;60.352;15.746;2022-09-09T13:23:31;15.70;95.80
13482;DHT22;6813;60.352;15.746;2022-09-09T13:25:59;15.50;95.00
13482;DHT22;6813;60.352;15.746;2022-09-09T13:28:28;15.40;94.60
13482;DHT22;6813;60.352;15.746;2022-09-09T13:31:03;15.30;95.50
13482;DHT22;6813;60.352;15.746;2022-09-09T13:36:02;15.20;95.80
13482;DHT22;6813;60.352;15.746;2022-09-09T13:38:32;15.10;95.10
13482;DHT22;6813;60.352;15.746;2022-09-09T13:41:03;15.10;95.20
13482;DHT22;6813;60.352;15.746;2022-09-09T13:43:34;15.10;95.20
13482;DHT22;6813;60.352;15.746;2022-09-09T13:46:05;15.20;94.30
13482;DHT22;6813;60.352;15.746;2022-09-09T13:48:31;15.30;93.10
13482;DHT22;6813;60.352;15.746;2022-09-09T13:51:04;15.30;94.00
13482;DHT22;6813;60.352;15.746;2022-09-09T13:53:31;15.50;93.60
13482;DHT22;6813;60.352;15.746;2022-09-09T13:55:57;15.50;93.30
13482;DHT22;6813;60.352;15.746;2022-09-09T13:58:24;15.50;93.40
13482;DHT22;6813;60.352;15.746;2022-09-09T14:00:51;15.40;93.10
13482;DHT22;6813;60.352;15.746;2022-09-09T14:03:17;15.40;93.20
13482;DHT22;6813;60.352;15.746;2022-09-09T14:05:44;15.30;93.70
13482;DHT22;6813;60.352;15.746;2022-09-09T14:08:16;15.20;93.20
13482;DHT22;6813;60.352;15.746;2022-09-09T14:10:46;15.40;93.50
13482;DHT22;6813;60.352;15.746;2022-09-09T14:13:12;15.50;93.20
13482;DHT22;6813;60.352;15.746;2022-09-09T14:15:38;15.60;92.80
13482;DHT22;6813;60.352;15.746;2022-09-09T14:18:04;15.60;92.10
13482;DHT22;6813;60.352;15.746;2022-09-09T14:20:30;15.70;92.20
13482;DHT22;6813;60.352;15.746;2022-09-09T14:22:55;15.80;93.10
13482;DHT22;6813;60.352;15.746;2022-09-09T14:25:23;15.90;92.80
13482;DHT22;6813;60.352;15.746;2022-09-09T14:27:48;16.00;93.20
13482;DHT22;6813;60.352;15.746;2022-09-09T14:30:16;15.80;92.80
13482;DHT22;6813;60.352;15.746;2022-09-09T14:32:42;15.60;93.30
13482;DHT22;6813;60.352;15.746;2022-09-09T14:35:08;15.50;93.50
13482;DHT22;6813;60.352;15.746;2022-09-09T14:37:34;15.40;93.00
13482;DHT22;6813;60.352;15.746;2022-09-09T14:40:00;15.20;93.50
13482;DHT22;6813;60.352;15.746;2022-09-09T14:42:26;15.20;93.80
13482;DHT22;6813;60.352;15.746;2022-09-09T14:44:52;15.30;93.20
13482;DHT22;6813;60.352;15.746;2022-09-09T14:47:18;15.20;92.70
13482;DHT22;6813;60.352;15.746;2022-09-09T14:49:43;15.20;93.40
13482;DHT22;6813;60.352;15.746;2022-09-09T14:52:10;15.20;93.20
13482;DHT22;6813;60.352;15.746;2022-09-09T14:54:36;15.20;93.20
13482;DHT22;6813;60.352;15.746;2022-09-09T14:57:02;15.20;92.90
13482;DHT22;6813;60.352;15.746;2022-09-09T14:59:28;15.30;93.20
13482;DHT22;6813;60.352;15.746;2022-09-09T15:01:54;15.40;92.50
13482;DHT22;6813;60.352;15.746;2022-09-09T15:04:19;15.40;93.10
13482;DHT22;6813;60.352;15.746;2022-09-09T15:06:45;15.50;93.00
13482;DHT22;6813;60.352;15.746;2022-09-09T15:09:14;15.40;93.10
13482;DHT22;6813;60.352;15.746;2022-09-09T15:11:39;15.20;92.30
13482;DHT22;6813;60.352;15.746;2022-09-09T15:14:07;15.20;92.40
13482;DHT22;6813;60.352;15.746;2022-09-09T15:16:34;15.20;92.40
13482;DHT22;6813;60.352;15.746;2022-09-09T15:19:01;15.10;93.10
13482;DHT22;6813;60.352;15.746;2022-09-09T15:21:33;15.10;93.10
13482;DHT22;6813;60.352;15.746;2022-09-09T15:23:59;15.00;93.40
13482;DHT22;6813;60.352;15.746;2022-09-09T15:26:25;15.20;93.60
13482;DHT22;6813;60.352;15.746;2022-09-09T15:28:52;15.10;93.20
13482;DHT22;6813;60.352;15.746;2022-09-09T15:31:21;15.20;93.70
13482;DHT22;6813;60.352;15.746;2022-09-09T15:33:51;15.20;93.40
13482;DHT22;6813;60.352;15.746;2022-09-09T15:36:23;15.30;93.10
13482;DHT22;6813;60.352;15.746;2022-09-09T15:38:50;15.30;93.50
13482;DHT22;6813;60.352;15.746;2022-09-09T15:41:17;15.40;93.40
13482;DHT22;6813;60.352;15.746;2022-09-09T15:43:51;15.30;93.40
13482;DHT22;6813;60.352;15.746;2022-09-09T15:48:44;15.30;93.40
13482;DHT22;6813;60.352;15.746;2022-09-09T15:51:10;15.40;93.50
13482;DHT22;6813;60.352;15.746;2022-09-09T15:53:39;15.30;93.40
13482;DHT22;6813;60.352;15.746;2022-09-09T15:56:06;15.20;93.80
13482;DHT22;6813;60.352;15.746;2022-09-09T15:58:32;15.10;94.00
13482;DHT22;6813;60.352;15.746;2022-09-09T16:01:06;15.10;94.10
13482;DHT22;6813;60.352;15.746;2022-09-09T16:03:37;15.00;94.00
13482;DHT22;6813;60.352;15.746;2022-09-09T16:06:04;15.00;94.20
13482;DHT22;6813;60.352;15.746;2022-09-09T16:08:38;15.00;94.20
13482;DHT22;6813;60.352;15.746;2022-09-09T16:11:13;15.00;94.30
13482;DHT22;6813;60.352;15.746;2022-09-09T16:13:43;15.00;94.50
13482;DHT22;6813;60.352;15.746;2022-09-09T16:16:13;15.10;94.20
13482;DHT22;6813;60.352;15.746;2022-09-09T16:18:42;15.20;94.40
13482;DHT22;6813;60.352;15.746;2022-09-09T16:21:15;15.40;94.00
13482;DHT22;6813;60.352;15.746;2022-09-09T16:23:41;15.40;93.90
13482;DHT22;6813;60.352;15.746;2022-09-09T16:26:11;15.20;93.60
13482;DHT22;6813;60.352;15.746;2022-09-09T16:28:37;15.10;94.40
13482;DHT22;6813;60.352;15.746;2022-09-09T16:31:11;15.10;95.00
13482;DHT22;6813;60.352;15.746;2022-09-09T16:33:39;15.10;94.80
13482;DHT22;6813;60.352;15.746;2022-09-09T16:38:47;15.10;95.10
13482;DHT22;6813;60.352;15.746;2022-09-09T16:41:14;15.20;95.10
13482;DHT22;6813;60.352;15.746;2022-09-09T16:43:40;15.20;94.70
13482;DHT22;6813;60.352;15.746;2022-09-09T16:46:17;15.10;95.10
13482;DHT22;6813;60.352;15.746;2022-09-09T16:48:45;15.20;95.10
13482;DHT22;6813;60.352;15.746;2022-09-09T16:51:20;15.10;95.10
13482;DHT22;6813;60.352;15.746;2022-09-09T16:53:46;15.00;95.50
13482;DHT22;6813;60.352;15.746;2022-09-09T16:56:15;15.00;95.70
13482;DHT22;6813;60.352;15.746;2022-09-09T16:58:42;14.90;95.70
13482;DHT22;6813;60.352;15.746;2022-09-09T17:01:11;15.00;95.70
13482;DHT22;6813;60.352;15.746;2022-09-09T17:03:40;15.10;95.60
13482;DHT22;6813;60.352;15.746;2022-09-09T17:06:10;15.20;95.40
13482;DHT22;6813;60.352;15.746;2022-09-09T17:08:37;15.20;95.30
13482;DHT22;6813;60.352;15.746;2022-09-09T17:11:10;15.30;95.20
13482;DHT22;6813;60.352;15.746;2022-09-09T17:13:39;15.40;95.20
13482;DHT22;6813;60.352;15.746;2022-09-09T17:16:05;15.40;95.30
13482;DHT22;6813;60.352;15.746;2022-09-09T17:18:31;15.40;95.20
13482;DHT22;6813;60.352;15.746;2022-09-09T17:21:03;15.40;95.30
13482;DHT22;6813;60.352;15.746;2022-09-09T17:23:28;15.40;95.30
13482;DHT22;6813;60.352;15.746;2022-09-09T17:25:59;15.40;95.40
13482;DHT22;6813;60.352;15.746;2022-09-09T17:28:26;15.40;95.60
13482;DHT22;6813;60.352;15.746;2022-09-09T17:30:57;15.40;95.70
13482;DHT22;6813;60.352;15.746;2022-09-09T17:33:25;15.40;95.70
13482;DHT22;6813;60.352;15.746;2022-09-09T17:35:52;15.30;95.80
13482;DHT22;6813;60.352;15.746;2022-09-09T17:38:18;15.30;95.90
13482;DHT22;6813;60.352;15.746;2022-09-09T17:40:44;15.30;96.00
13482;DHT22;6813;60.352;15.746;2022-09-09T17:43:09;15.30;96.00
13482;DHT22;6813;60.352;15.746;2022-09-09T17:45:35;15.40;96.00
13482;DHT22;6813;60.352;15.746;2022-09-09T17:48:01;15.30;96.00
13482;DHT22;6813;60.352;15.746;2022-09-09T17:50:28;15.30;96.00
13482;DHT22;6813;60.352;15.746;2022-09-09T17:52:53;15.20;96.20
13482;DHT22;6813;60.352;15.746;2022-09-09T17:55:19;15.10;96.30
13482;DHT22;6813;60.352;15.746;2022-09-09T17:57:45;15.10;96.10
13482;DHT22;6813;60.352;15.746;2022-09-09T18:00:11;15.10;96.10
13482;DHT22;6813;60.352;15.746;2022-09-09T18:02:37;15.00;96.00
13482;DHT22;6813;60.352;15.746;2022-09-09T18:05:03;15.00;96.10
13482;DHT22;6813;60.352;15.746;2022-09-09T18:07:29;15.00;96.30
13482;DHT22;6813;60.352;15.746;2022-09-09T18:09:55;14.90;96.40
13482;DHT22;6813;60.352;15.746;2022-09-09T18:12:21;14.80;96.50
13482;DHT22;6813;60.352;15.746;2022-09-09T18:14:46;14.80;96.70
13482;DHT22;6813;60.352;15.746;2022-09-09T18:17:13;14.70;96.70